Fort Independence — WBH3169 — position and weather

sailwx.info

Track history (hours):
 
Tides and Currents Weather Stations Pressure Air Temp Water Temp Dewpoint Dewpoint Depression Visibility Wind Speed Wind Dir Waves Ship Positions

Fort Independence

Owner: Boston Harbor Cruises, BOSTON, MA. More information available from US FCC via Universal Licensing System and Coast Guard Vessel Documentation Center.

Last reported at 2018-Feb-21 19:36 UTC. Time now 2018-Feb-21 21:12 UTC.
Position N 42°22' W 071°03'.

Type: Passenger vessel. MMSI: 367177610.

Date/timePositionNaut miles runAvg speedWind from/ knotsBaromVisibWave heightAir tempDewpointWater temp
2018-Feb-21 19:36N 42°22' W 071°03'1 4.6
2018-Feb-21 19:29N 42°22' W 071°03'4 6.1
2018-Feb-21 18:45N 42°20' W 070°58'4 7.8
2018-Feb-21 18:13N 42°21' W 071°03'0 0.4
2018-Feb-21 17:35N 42°22' W 071°03'0 3.4
2018-Feb-21 17:29N 42°22' W 071°03'3 3.8
2018-Feb-21 16:35N 42°20' W 070°59'1 8.2
2018-Feb-21 16:29N 42°20' W 071°00'3 1.9
2018-Feb-21 15:08N 42°22' W 071°03'0 1.9
2018-Feb-21 15:00N 42°22' W 071°03'0 0.7
2018-Feb-21 14:25N 42°21' W 071°02'1 0.0
2018-Feb-20 20:04N 42°22' W 071°03'0 0.1
2018-Feb-20 20:00N 42°22' W 071°03'0 0.5
2018-Feb-20 19:29N 42°22' W 071°03'2 3.7
2018-Feb-20 19:00N 42°21' W 071°01'1 2.2
2018-Feb-20 18:30N 42°20' W 070°59'3 2.9
2018-Feb-20 17:31N 42°22' W 071°03'0 2.4
2018-Feb-20 17:30N 42°22' W 071°03'3 4.8
2018-Feb-20 16:50N 42°20' W 070°59'1 2.2
2018-Feb-20 16:30N 42°20' W 070°60'  
2018-Feb-14 18:37N 42°22' W 071°03'0 2.3
2018-Feb-14 18:27N 42°22' W 071°02'0 0.2
2018-Feb-14 18:00N 42°22' W 071°02'2 1.0
2018-Feb-14 16:01N 42°21' W 070°60'1 9.1
2018-Feb-14 15:52N 42°21' W 071°02'1 0.0
2018-Feb-13 18:45N 42°22' W 071°03'0 0.8
2018-Feb-13 18:31N 42°22' W 071°03'  
Track history (hours):
 
Tides and Currents Weather Stations Pressure Air Temp Water Temp Dewpoint Dewpoint Depression Visibility Wind Speed Wind Dir Waves Ship Positions

Fort Independence

Owner: Boston Harbor Cruises, BOSTON, MA. More information available from US FCC via Universal Licensing System and Coast Guard Vessel Documentation Center.

Last reported at 2018-Feb-21 19:36 UTC. Time now 2018-Feb-21 21:12 UTC.
Position N 42°22' W 071°03'.

Type: Passenger vessel. MMSI: 367177610.

Date/timePositionNaut miles runAvg speedWind from/ knotsBaromVisibWave heightAir tempDewpointWater temp
2018-Feb-21 19:36N 42°22' W 071°03'1 4.6
2018-Feb-21 19:29N 42°22' W 071°03'4 6.1
2018-Feb-21 18:45N 42°20' W 070°58'4 7.8
2018-Feb-21 18:13N 42°21' W 071°03'0 0.4
2018-Feb-21 17:35N 42°22' W 071°03'0 3.4
2018-Feb-21 17:29N 42°22' W 071°03'3 3.8
2018-Feb-21 16:35N 42°20' W 070°59'1 8.2
2018-Feb-21 16:29N 42°20' W 071°00'3 1.9
2018-Feb-21 15:08N 42°22' W 071°03'0 1.9
2018-Feb-21 15:00N 42°22' W 071°03'0 0.7
2018-Feb-21 14:25N 42°21' W 071°02'1 0.0
2018-Feb-20 20:04N 42°22' W 071°03'0 0.1
2018-Feb-20 20:00N 42°22' W 071°03'0 0.5
2018-Feb-20 19:29N 42°22' W 071°03'2 3.7
2018-Feb-20 19:00N 42°21' W 071°01'1 2.2
2018-Feb-20 18:30N 42°20' W 070°59'3 2.9
2018-Feb-20 17:31N 42°22' W 071°03'0 2.4
2018-Feb-20 17:30N 42°22' W 071°03'3 4.8
2018-Feb-20 16:50N 42°20' W 070°59'1 2.2
2018-Feb-20 16:30N 42°20' W 070°60'  
2018-Feb-14 18:37N 42°22' W 071°03'0 2.3
2018-Feb-14 18:27N 42°22' W 071°02'0 0.2
2018-Feb-14 18:00N 42°22' W 071°02'2 1.0
2018-Feb-14 16:01N 42°21' W 070°60'1 9.1
2018-Feb-14 15:52N 42°21' W 071°02'1 0.0
2018-Feb-13 18:45N 42°22' W 071°03'0 0.8
2018-Feb-13 18:31N 42°22' W 071°03'  

Dump ship's entire track history